Portada
METAR-TAF:

METAR-TAF

Aeropuertos :

Granada, España

Aeropuerto de Granada

latitud: 37-11N, longitud: 003-47W, altitud: 567 m

Observación

El informe se hizo hace 35 minutos, a las 04:00 UTC
Viento calma
Temperatura 2°C
Humedad 100%
Presión 1029 hPa
Visibilidad 10 km o más

METAR: LEGR 220400Z AUTO 00000KT 9999 NCD 02/02 Q1029

Hora: 05:35 (04:35 UTC)

Pronóstico

El informe se hizo hace 2 horas y 35 minutos, a las 02:00 UTC
Pronóstico válido del 22 a las 03 UTC al 23 a las 03 UTC
Viento 4 kt con dirección variable
Visibilidad 10 km o más
sin nubes por debajo de 1500 m y sin presencia de cumulonimbus.

TAF: LEGR 220200Z 2203/2303 VRB04KT CAVOK TX21/2215Z TN01/2208Z

Observaciones y pronósticos meteorológicos de más de 4000 aeropuertos (mensajes METAR y TAF).

Los puntos amarillos y rojos representan las estaciones disponibles.

Ponga el ratón en el punto deseado para ver el nombre de la estación.

Haga clic para ver las observaciones y los pronósticos meteorológicos.

Para cambiar el mapa : haga clic en los botones verdes con una cruz de color negro para hacer un zoom, en el botón verde con un guión para alejar o en las flechas verdes para mapas adyacentes.


METAR-TAF: